sensor_id;sensor_type;location;lat;lon;timestamp;P1;durP1;ratioP1;P2;durP2;ratioP2
46881;SDS011;44112;38.408;-122.974;2022-10-16T00:01:12;23.48;;;7.80;;
46881;SDS011;44112;38.408;-122.974;2022-10-16T00:03:41;25.15;;;6.63;;
46881;SDS011;44112;38.408;-122.974;2022-10-16T00:06:09;32.05;;;8.00;;
46881;SDS011;44112;38.408;-122.974;2022-10-16T00:08:36;29.88;;;8.13;;
46881;SDS011;44112;38.408;-122.974;2022-10-16T00:11:05;41.17;;;8.73;;
46881;SDS011;44112;38.408;-122.974;2022-10-16T00:13:55;37.25;;;9.38;;
46881;SDS011;44112;38.408;-122.974;2022-10-16T00:16:24;24.75;;;8.57;;
46881;SDS011;44112;38.408;-122.974;2022-10-16T00:18:51;33.05;;;8.32;;
46881;SDS011;44112;38.408;-122.974;2022-10-16T00:21:22;29.80;;;8.15;;
46881;SDS011;44112;38.408;-122.974;2022-10-16T00:23:51;19.85;;;7.97;;
46881;SDS011;44112;38.408;-122.974;2022-10-16T00:26:23;26.88;;;7.95;;
46881;SDS011;44112;38.408;-122.974;2022-10-16T00:28:49;36.65;;;8.75;;
46881;SDS011;44112;38.408;-122.974;2022-10-16T00:31:18;23.60;;;7.60;;
46881;SDS011;44112;38.408;-122.974;2022-10-16T00:33:46;24.33;;;7.28;;
46881;SDS011;44112;38.408;-122.974;2022-10-16T00:36:13;18.65;;;7.68;;
46881;SDS011;44112;38.408;-122.974;2022-10-16T00:38:42;22.45;;;8.00;;
46881;SDS011;44112;38.408;-122.974;2022-10-16T00:41:15;18.10;;;7.30;;
46881;SDS011;44112;38.408;-122.974;2022-10-16T00:43:46;20.83;;;7.83;;
46881;SDS011;44112;38.408;-122.974;2022-10-16T00:46:25;18.35;;;7.78;;
46881;SDS011;44112;38.408;-122.974;2022-10-16T00:51:54;18.70;;;7.13;;
46881;SDS011;44112;38.408;-122.974;2022-10-16T00:54:27;19.35;;;8.38;;
46881;SDS011;44112;38.408;-122.974;2022-10-16T00:56:56;20.98;;;7.57;;
46881;SDS011;44112;38.408;-122.974;2022-10-16T00:59:27;21.38;;;7.80;;
46881;SDS011;44112;38.408;-122.974;2022-10-16T01:01:56;18.58;;;7.53;;
46881;SDS011;44112;38.408;-122.974;2022-10-16T01:04:24;17.70;;;7.20;;
46881;SDS011;44112;38.408;-122.974;2022-10-16T01:15:01;15.82;;;7.43;;
46881;SDS011;44112;38.408;-122.974;2022-10-16T01:20:51;15.88;;;7.28;;
46881;SDS011;44112;38.408;-122.974;2022-10-16T01:23:19;15.20;;;7.30;;
46881;SDS011;44112;38.408;-122.974;2022-10-16T01:28:57;15.43;;;6.97;;
46881;SDS011;44112;38.408;-122.974;2022-10-16T01:31:36;14.48;;;6.93;;
46881;SDS011;44112;38.408;-122.974;2022-10-16T01:34:08;16.33;;;7.13;;
46881;SDS011;44112;38.408;-122.974;2022-10-16T01:36:53;11.68;;;5.93;;
46881;SDS011;44112;38.408;-122.974;2022-10-16T01:39:35;20.75;;;7.00;;
46881;SDS011;44112;38.408;-122.974;2022-10-16T01:42:06;15.10;;;6.30;;
46881;SDS011;44112;38.408;-122.974;2022-10-16T01:44:36;19.85;;;7.32;;
46881;SDS011;44112;38.408;-122.974;2022-10-16T01:47:07;17.95;;;7.05;;
46881;SDS011;44112;38.408;-122.974;2022-10-16T01:49:36;17.95;;;6.95;;
46881;SDS011;44112;38.408;-122.974;2022-10-16T01:52:05;17.67;;;7.32;;
46881;SDS011;44112;38.408;-122.974;2022-10-16T01:54:36;16.55;;;7.10;;
46881;SDS011;44112;38.408;-122.974;2022-10-16T01:57:06;17.98;;;6.53;;
46881;SDS011;44112;38.408;-122.974;2022-10-16T01:59:35;20.80;;;7.22;;
46881;SDS011;44112;38.408;-122.974;2022-10-16T02:02:08;17.30;;;7.30;;
46881;SDS011;44112;38.408;-122.974;2022-10-16T02:04:44;20.02;;;9.05;;
46881;SDS011;44112;38.408;-122.974;2022-10-16T02:07:15;14.93;;;7.15;;
46881;SDS011;44112;38.408;-122.974;2022-10-16T02:09:42;16.02;;;7.30;;
46881;SDS011;44112;38.408;-122.974;2022-10-16T02:12:15;16.17;;;7.47;;
46881;SDS011;44112;38.408;-122.974;2022-10-16T02:14:51;13.70;;;7.57;;
46881;SDS011;44112;38.408;-122.974;2022-10-16T02:17:19;15.95;;;6.80;;
46881;SDS011;44112;38.408;-122.974;2022-10-16T02:19:48;12.75;;;6.93;;
46881;SDS011;44112;38.408;-122.974;2022-10-16T02:22:39;15.75;;;7.40;;
46881;SDS011;44112;38.408;-122.974;2022-10-16T02:28:03;14.68;;;8.10;;
46881;SDS011;44112;38.408;-122.974;2022-10-16T02:30:39;14.27;;;7.40;;
46881;SDS011;44112;38.408;-122.974;2022-10-16T02:33:09;14.65;;;6.90;;
46881;SDS011;44112;38.408;-122.974;2022-10-16T02:35:41;12.48;;;6.15;;
46881;SDS011;44112;38.408;-122.974;2022-10-16T02:38:11;13.88;;;7.05;;
46881;SDS011;44112;38.408;-122.974;2022-10-16T02:40:39;13.82;;;7.85;;
46881;SDS011;44112;38.408;-122.974;2022-10-16T02:43:07;14.68;;;6.70;;
46881;SDS011;44112;38.408;-122.974;2022-10-16T02:45:35;12.77;;;7.47;;
46881;SDS011;44112;38.408;-122.974;2022-10-16T02:48:02;14.32;;;7.30;;
46881;SDS011;44112;38.408;-122.974;2022-10-16T02:50:29;13.77;;;7.63;;
46881;SDS011;44112;38.408;-122.974;2022-10-16T02:52:56;15.60;;;7.20;;
46881;SDS011;44112;38.408;-122.974;2022-10-16T02:55:23;12.95;;;6.95;;
46881;SDS011;44112;38.408;-122.974;2022-10-16T02:57:50;12.85;;;7.32;;
46881;SDS011;44112;38.408;-122.974;2022-10-16T03:00:17;11.90;;;7.00;;
46881;SDS011;44112;38.408;-122.974;2022-10-16T03:02:44;14.63;;;7.72;;
46881;SDS011;44112;38.408;-122.974;2022-10-16T03:05:11;14.63;;;6.93;;
46881;SDS011;44112;38.408;-122.974;2022-10-16T03:07:39;14.10;;;6.68;;
46881;SDS011;44112;38.408;-122.974;2022-10-16T03:10:06;13.05;;;6.80;;
46881;SDS011;44112;38.408;-122.974;2022-10-16T03:12:33;13.20;;;7.22;;
46881;SDS011;44112;38.408;-122.974;2022-10-16T03:15:00;12.48;;;6.78;;
46881;SDS011;44112;38.408;-122.974;2022-10-16T03:17:28;12.73;;;6.68;;
46881;SDS011;44112;38.408;-122.974;2022-10-16T03:19:54;12.80;;;6.22;;
46881;SDS011;44112;38.408;-122.974;2022-10-16T03:22:21;17.25;;;7.57;;
46881;SDS011;44112;38.408;-122.974;2022-10-16T03:24:47;12.52;;;7.20;;
46881;SDS011;44112;38.408;-122.974;2022-10-16T03:27:15;10.32;;;6.18;;
46881;SDS011;44112;38.408;-122.974;2022-10-16T03:29:41;17.38;;;7.18;;
46881;SDS011;44112;38.408;-122.974;2022-10-16T03:32:08;11.60;;;6.55;;
46881;SDS011;44112;38.408;-122.974;2022-10-16T03:34:34;11.40;;;6.88;;
46881;SDS011;44112;38.408;-122.974;2022-10-16T03:37:00;11.77;;;6.57;;
46881;SDS011;44112;38.408;-122.974;2022-10-16T03:39:27;12.20;;;6.72;;
46881;SDS011;44112;38.408;-122.974;2022-10-16T03:41:54;13.40;;;6.68;;
46881;SDS011;44112;38.408;-122.974;2022-10-16T03:44:20;13.43;;;6.50;;
46881;SDS011;44112;38.408;-122.974;2022-10-16T03:46:48;11.05;;;6.38;;
46881;SDS011;44112;38.408;-122.974;2022-10-16T03:49:14;11.30;;;6.07;;
46881;SDS011;44112;38.408;-122.974;2022-10-16T03:51:42;12.68;;;6.78;;
46881;SDS011;44112;38.408;-122.974;2022-10-16T03:54:09;15.10;;;7.38;;
46881;SDS011;44112;38.408;-122.974;2022-10-16T03:56:36;16.52;;;7.05;;
46881;SDS011;44112;38.408;-122.974;2022-10-16T03:59:02;14.70;;;6.80;;
46881;SDS011;44112;38.408;-122.974;2022-10-16T04:01:29;13.95;;;7.45;;
46881;SDS011;44112;38.408;-122.974;2022-10-16T04:03:55;17.15;;;6.50;;
46881;SDS011;44112;38.408;-122.974;2022-10-16T04:06:22;12.30;;;6.43;;
46881;SDS011;44112;38.408;-122.974;2022-10-16T04:08:49;11.20;;;6.43;;
46881;SDS011;44112;38.408;-122.974;2022-10-16T04:11:15;15.13;;;6.35;;
46881;SDS011;44112;38.408;-122.974;2022-10-16T04:13:41;14.80;;;6.28;;
46881;SDS011;44112;38.408;-122.974;2022-10-16T04:16:09;13.82;;;6.97;;
46881;SDS011;44112;38.408;-122.974;2022-10-16T04:18:35;13.68;;;6.13;;
46881;SDS011;44112;38.408;-122.974;2022-10-16T04:21:05;13.25;;;6.88;;
46881;SDS011;44112;38.408;-122.974;2022-10-16T04:23:32;12.95;;;6.63;;
46881;SDS011;44112;38.408;-122.974;2022-10-16T04:25:59;14.50;;;6.50;;
46881;SDS011;44112;38.408;-122.974;2022-10-16T04:28:27;14.18;;;6.93;;
46881;SDS011;44112;38.408;-122.974;2022-10-16T04:30:54;14.65;;;6.80;;
46881;SDS011;44112;38.408;-122.974;2022-10-16T04:33:22;11.27;;;6.63;;
46881;SDS011;44112;38.408;-122.974;2022-10-16T04:35:55;14.27;;;6.45;;
46881;SDS011;44112;38.408;-122.974;2022-10-16T04:38:22;11.75;;;6.47;;
46881;SDS011;44112;38.408;-122.974;2022-10-16T04:40:49;14.35;;;6.88;;
46881;SDS011;44112;38.408;-122.974;2022-10-16T04:43:15;13.50;;;7.07;;
46881;SDS011;44112;38.408;-122.974;2022-10-16T04:45:43;12.50;;;6.63;;
46881;SDS011;44112;38.408;-122.974;2022-10-16T04:48:09;11.93;;;6.05;;
46881;SDS011;44112;38.408;-122.974;2022-10-16T04:50:37;16.23;;;6.22;;
46881;SDS011;44112;38.408;-122.974;2022-10-16T04:53:05;13.57;;;6.40;;
46881;SDS011;44112;38.408;-122.974;2022-10-16T04:55:32;13.77;;;6.20;;
46881;SDS011;44112;38.408;-122.974;2022-10-16T04:57:59;12.40;;;6.47;;
46881;SDS011;44112;38.408;-122.974;2022-10-16T05:00:26;10.93;;;5.78;;
46881;SDS011;44112;38.408;-122.974;2022-10-16T05:02:52;12.60;;;6.63;;
46881;SDS011;44112;38.408;-122.974;2022-10-16T05:05:19;14.82;;;6.85;;
46881;SDS011;44112;38.408;-122.974;2022-10-16T05:07:47;15.07;;;6.88;;
46881;SDS011;44112;38.408;-122.974;2022-10-16T05:10:15;11.38;;;6.30;;
46881;SDS011;44112;38.408;-122.974;2022-10-16T05:12:41;11.88;;;6.90;;
46881;SDS011;44112;38.408;-122.974;2022-10-16T05:15:08;12.20;;;6.40;;
46881;SDS011;44112;38.408;-122.974;2022-10-16T05:17:35;10.35;;;6.25;;
46881;SDS011;44112;38.408;-122.974;2022-10-16T05:20:03;16.25;;;6.68;;
46881;SDS011;44112;38.408;-122.974;2022-10-16T05:22:30;10.48;;;6.45;;
46881;SDS011;44112;38.408;-122.974;2022-10-16T05:24:57;11.43;;;5.78;;
46881;SDS011;44112;38.408;-122.974;2022-10-16T05:27:23;11.35;;;6.18;;
46881;SDS011;44112;38.408;-122.974;2022-10-16T05:29:51;11.25;;;6.38;;
46881;SDS011;44112;38.408;-122.974;2022-10-16T05:32:18;11.70;;;6.65;;
46881;SDS011;44112;38.408;-122.974;2022-10-16T05:34:45;11.05;;;6.63;;
46881;SDS011;44112;38.408;-122.974;2022-10-16T05:37:12;12.30;;;5.78;;
46881;SDS011;44112;38.408;-122.974;2022-10-16T05:39:39;10.80;;;5.97;;
46881;SDS011;44112;38.408;-122.974;2022-10-16T05:42:06;9.68;;;6.05;;
46881;SDS011;44112;38.408;-122.974;2022-10-16T05:44:33;9.38;;;5.38;;
46881;SDS011;44112;38.408;-122.974;2022-10-16T05:47:00;13.23;;;6.53;;
46881;SDS011;44112;38.408;-122.974;2022-10-16T05:49:26;11.57;;;6.20;;
46881;SDS011;44112;38.408;-122.974;2022-10-16T05:51:53;13.05;;;6.63;;
46881;SDS011;44112;38.408;-122.974;2022-10-16T05:54:20;13.63;;;6.22;;
46881;SDS011;44112;38.408;-122.974;2022-10-16T05:56:47;10.77;;;6.22;;
46881;SDS011;44112;38.408;-122.974;2022-10-16T05:59:14;9.85;;;6.15;;
46881;SDS011;44112;38.408;-122.974;2022-10-16T06:01:41;10.60;;;5.85;;
46881;SDS011;44112;38.408;-122.974;2022-10-16T06:04:08;9.63;;;5.63;;
46881;SDS011;44112;38.408;-122.974;2022-10-16T06:06:34;10.18;;;5.55;;
46881;SDS011;44112;38.408;-122.974;2022-10-16T06:09:02;13.13;;;6.35;;
46881;SDS011;44112;38.408;-122.974;2022-10-16T06:11:29;9.45;;;6.00;;
46881;SDS011;44112;38.408;-122.974;2022-10-16T06:13:59;10.52;;;6.20;;
46881;SDS011;44112;38.408;-122.974;2022-10-16T06:16:31;14.18;;;5.90;;
46881;SDS011;44112;38.408;-122.974;2022-10-16T06:18:59;12.50;;;6.30;;
46881;SDS011;44112;38.408;-122.974;2022-10-16T06:21:27;10.23;;;5.97;;
46881;SDS011;44112;38.408;-122.974;2022-10-16T06:23:55;11.02;;;6.20;;
46881;SDS011;44112;38.408;-122.974;2022-10-16T06:26:24;11.15;;;6.30;;
46881;SDS011;44112;38.408;-122.974;2022-10-16T06:28:56;11.25;;;6.40;;
46881;SDS011;44112;38.408;-122.974;2022-10-16T06:31:23;9.35;;;5.90;;
46881;SDS011;44112;38.408;-122.974;2022-10-16T06:33:53;9.75;;;5.90;;
46881;SDS011;44112;38.408;-122.974;2022-10-16T06:36:20;9.02;;;5.57;;
46881;SDS011;44112;38.408;-122.974;2022-10-16T06:38:47;9.50;;;5.97;;
46881;SDS011;44112;38.408;-122.974;2022-10-16T06:41:18;9.45;;;5.78;;
46881;SDS011;44112;38.408;-122.974;2022-10-16T06:43:46;9.65;;;6.20;;
46881;SDS011;44112;38.408;-122.974;2022-10-16T06:46:14;10.30;;;5.97;;
46881;SDS011;44112;38.408;-122.974;2022-10-16T06:48:42;9.88;;;5.93;;
46881;SDS011;44112;38.408;-122.974;2022-10-16T06:51:15;9.48;;;5.78;;
46881;SDS011;44112;38.408;-122.974;2022-10-16T06:53:48;9.35;;;5.75;;
46881;SDS011;44112;38.408;-122.974;2022-10-16T06:56:17;11.25;;;5.78;;
46881;SDS011;44112;38.408;-122.974;2022-10-16T06:58:46;9.93;;;6.13;;
46881;SDS011;44112;38.408;-122.974;2022-10-16T07:01:13;9.90;;;6.32;;
46881;SDS011;44112;38.408;-122.974;2022-10-16T07:03:41;10.90;;;5.80;;
46881;SDS011;44112;38.408;-122.974;2022-10-16T07:06:10;14.10;;;6.15;;
46881;SDS011;44112;38.408;-122.974;2022-10-16T07:08:39;11.32;;;6.50;;
46881;SDS011;44112;38.408;-122.974;2022-10-16T07:11:08;11.25;;;6.30;;
46881;SDS011;44112;38.408;-122.974;2022-10-16T07:13:36;10.73;;;5.72;;
46881;SDS011;44112;38.408;-122.974;2022-10-16T07:16:05;10.60;;;6.22;;
46881;SDS011;44112;38.408;-122.974;2022-10-16T07:18:36;11.70;;;6.60;;
46881;SDS011;44112;38.408;-122.974;2022-10-16T07:21:29;9.05;;;5.80;;
46881;SDS011;44112;38.408;-122.974;2022-10-16T07:23:56;10.18;;;6.43;;
46881;SDS011;44112;38.408;-122.974;2022-10-16T07:26:25;10.60;;;6.40;;
46881;SDS011;44112;38.408;-122.974;2022-10-16T07:28:52;11.75;;;6.68;;
46881;SDS011;44112;38.408;-122.974;2022-10-16T07:31:19;10.35;;;6.22;;
46881;SDS011;44112;38.408;-122.974;2022-10-16T07:33:46;10.38;;;6.35;;
46881;SDS011;44112;38.408;-122.974;2022-10-16T07:36:14;10.82;;;6.18;;
46881;SDS011;44112;38.408;-122.974;2022-10-16T07:38:41;10.60;;;6.75;;
46881;SDS011;44112;38.408;-122.974;2022-10-16T07:41:09;14.18;;;6.30;;
46881;SDS011;44112;38.408;-122.974;2022-10-16T07:43:37;9.77;;;6.63;;
46881;SDS011;44112;38.408;-122.974;2022-10-16T07:46:05;9.98;;;6.10;;
46881;SDS011;44112;38.408;-122.974;2022-10-16T07:48:32;9.15;;;5.90;;
46881;SDS011;44112;38.408;-122.974;2022-10-16T07:51:00;10.38;;;6.28;;
46881;SDS011;44112;38.408;-122.974;2022-10-16T07:53:28;10.35;;;6.18;;
46881;SDS011;44112;38.408;-122.974;2022-10-16T07:56:01;9.00;;;5.82;;
46881;SDS011;44112;38.408;-122.974;2022-10-16T07:58:29;11.32;;;6.40;;
46881;SDS011;44112;38.408;-122.974;2022-10-16T08:00:56;9.45;;;6.22;;
46881;SDS011;44112;38.408;-122.974;2022-10-16T08:03:23;10.23;;;6.20;;
46881;SDS011;44112;38.408;-122.974;2022-10-16T08:05:50;10.25;;;6.03;;
46881;SDS011;44112;38.408;-122.974;2022-10-16T08:08:17;11.35;;;6.13;;
46881;SDS011;44112;38.408;-122.974;2022-10-16T08:10:44;8.43;;;5.40;;
46881;SDS011;44112;38.408;-122.974;2022-10-16T08:13:11;9.63;;;6.15;;
46881;SDS011;44112;38.408;-122.974;2022-10-16T08:15:40;9.93;;;5.65;;
46881;SDS011;44112;38.408;-122.974;2022-10-16T08:18:07;11.43;;;6.75;;
46881;SDS011;44112;38.408;-122.974;2022-10-16T08:20:35;9.95;;;6.18;;
46881;SDS011;44112;38.408;-122.974;2022-10-16T08:23:02;10.05;;;6.45;;
46881;SDS011;44112;38.408;-122.974;2022-10-16T08:25:29;8.70;;;6.03;;
46881;SDS011;44112;38.408;-122.974;2022-10-16T08:27:55;12.98;;;6.35;;
46881;SDS011;44112;38.408;-122.974;2022-10-16T08:30:23;14.48;;;6.65;;
46881;SDS011;44112;38.408;-122.974;2022-10-16T08:32:49;19.15;;;6.68;;
46881;SDS011;44112;38.408;-122.974;2022-10-16T08:35:16;10.98;;;6.53;;
46881;SDS011;44112;38.408;-122.974;2022-10-16T08:37:43;14.80;;;6.80;;
46881;SDS011;44112;38.408;-122.974;2022-10-16T08:40:20;12.23;;;6.63;;
46881;SDS011;44112;38.408;-122.974;2022-10-16T08:48:16;12.43;;;6.50;;
46881;SDS011;44112;38.408;-122.974;2022-10-16T08:50:44;12.52;;;6.57;;
46881;SDS011;44112;38.408;-122.974;2022-10-16T08:53:16;13.25;;;7.57;;
46881;SDS011;44112;38.408;-122.974;2022-10-16T08:55:52;13.85;;;6.45;;
46881;SDS011;44112;38.408;-122.974;2022-10-16T08:58:25;11.95;;;6.82;;
46881;SDS011;44112;38.408;-122.974;2022-10-16T09:00:54;13.50;;;7.05;;
46881;SDS011;44112;38.408;-122.974;2022-10-16T09:09:24;14.35;;;7.03;;
46881;SDS011;44112;38.408;-122.974;2022-10-16T09:20:18;17.60;;;8.57;;
46881;SDS011;44112;38.408;-122.974;2022-10-16T09:22:51;15.93;;;7.60;;
46881;SDS011;44112;38.408;-122.974;2022-10-16T09:25:41;16.30;;;7.00;;
46881;SDS011;44112;38.408;-122.974;2022-10-16T09:28:13;12.55;;;7.20;;
46881;SDS011;44112;38.408;-122.974;2022-10-16T09:30:40;14.10;;;7.57;;
46881;SDS011;44112;38.408;-122.974;2022-10-16T09:33:07;11.27;;;6.97;;
46881;SDS011;44112;38.408;-122.974;2022-10-16T09:35:37;11.38;;;7.13;;
46881;SDS011;44112;38.408;-122.974;2022-10-16T09:38:12;13.57;;;7.15;;
46881;SDS011;44112;38.408;-122.974;2022-10-16T09:40:47;13.73;;;7.20;;
46881;SDS011;44112;38.408;-122.974;2022-10-16T09:43:22;11.57;;;7.10;;
46881;SDS011;44112;38.408;-122.974;2022-10-16T09:46:29;15.18;;;7.43;;
46881;SDS011;44112;38.408;-122.974;2022-10-16T09:49:01;15.10;;;7.10;;
46881;SDS011;44112;38.408;-122.974;2022-10-16T09:51:43;14.32;;;7.10;;
46881;SDS011;44112;38.408;-122.974;2022-10-16T09:56:38;12.82;;;7.00;;
46881;SDS011;44112;38.408;-122.974;2022-10-16T09:59:11;12.98;;;7.10;;
46881;SDS011;44112;38.408;-122.974;2022-10-16T10:01:41;12.70;;;7.65;;
46881;SDS011;44112;38.408;-122.974;2022-10-16T10:04:15;12.07;;;7.38;;
46881;SDS011;44112;38.408;-122.974;2022-10-16T10:06:49;12.35;;;8.00;;
46881;SDS011;44112;38.408;-122.974;2022-10-16T10:12:20;13.02;;;7.75;;
46881;SDS011;44112;38.408;-122.974;2022-10-16T10:14:48;14.80;;;7.68;;
46881;SDS011;44112;38.408;-122.974;2022-10-16T10:17:22;15.43;;;7.45;;
46881;SDS011;44112;38.408;-122.974;2022-10-16T10:22:56;14.65;;;7.72;;
46881;SDS011;44112;38.408;-122.974;2022-10-16T10:25:25;14.18;;;7.53;;
46881;SDS011;44112;38.408;-122.974;2022-10-16T10:36:40;16.50;;;8.30;;
46881;SDS011;44112;38.408;-122.974;2022-10-16T10:39:22;11.38;;;7.22;;
46881;SDS011;44112;38.408;-122.974;2022-10-16T10:42:08;13.85;;;7.57;;
46881;SDS011;44112;38.408;-122.974;2022-10-16T10:45:18;13.88;;;7.63;;
46881;SDS011;44112;38.408;-122.974;2022-10-16T10:51:09;12.45;;;7.60;;
46881;SDS011;44112;38.408;-122.974;2022-10-16T10:53:50;12.05;;;7.47;;
46881;SDS011;44112;38.408;-122.974;2022-10-16T10:56:55;13.07;;;7.28;;
46881;SDS011;44112;38.408;-122.974;2022-10-16T11:02:17;12.57;;;8.02;;
46881;SDS011;44112;38.408;-122.974;2022-10-16T11:08:04;11.85;;;7.35;;
46881;SDS011;44112;38.408;-122.974;2022-10-16T11:10:46;12.10;;;7.63;;
46881;SDS011;44112;38.408;-122.974;2022-10-16T11:16:11;12.30;;;8.10;;
46881;SDS011;44112;38.408;-122.974;2022-10-16T11:18:51;12.48;;;8.18;;
46881;SDS011;44112;38.408;-122.974;2022-10-16T11:21:29;12.90;;;8.32;;
46881;SDS011;44112;38.408;-122.974;2022-10-16T11:24:06;14.70;;;7.85;;
46881;SDS011;44112;38.408;-122.974;2022-10-16T11:26:42;13.68;;;7.68;;
46881;SDS011;44112;38.408;-122.974;2022-10-16T11:29:13;12.25;;;7.35;;
46881;SDS011;44112;38.408;-122.974;2022-10-16T11:31:48;11.32;;;7.80;;
46881;SDS011;44112;38.408;-122.974;2022-10-16T11:34:22;12.32;;;7.75;;
46881;SDS011;44112;38.408;-122.974;2022-10-16T11:39:28;15.05;;;8.00;;
46881;SDS011;44112;38.408;-122.974;2022-10-16T11:42:44;13.82;;;8.45;;
46881;SDS011;44112;38.408;-122.974;2022-10-16T11:50:56;12.07;;;7.88;;
46881;SDS011;44112;38.408;-122.974;2022-10-16T11:56:30;12.05;;;7.50;;
46881;SDS011;44112;38.408;-122.974;2022-10-16T11:59:04;12.02;;;7.45;;
46881;SDS011;44112;38.408;-122.974;2022-10-16T12:04:46;12.05;;;7.68;;
46881;SDS011;44112;38.408;-122.974;2022-10-16T12:07:20;14.32;;;8.10;;
46881;SDS011;44112;38.408;-122.974;2022-10-16T12:09:50;12.02;;;7.60;;
46881;SDS011;44112;38.408;-122.974;2022-10-16T12:12:25;12.70;;;7.78;;
46881;SDS011;44112;38.408;-122.974;2022-10-16T12:15:00;12.73;;;7.97;;
46881;SDS011;44112;38.408;-122.974;2022-10-16T12:17:43;14.45;;;7.55;;
46881;SDS011;44112;38.408;-122.974;2022-10-16T12:22:52;12.32;;;7.05;;
46881;SDS011;44112;38.408;-122.974;2022-10-16T12:25:29;14.00;;;8.23;;
46881;SDS011;44112;38.408;-122.974;2022-10-16T12:30:35;13.05;;;7.78;;
46881;SDS011;44112;38.408;-122.974;2022-10-16T12:33:03;12.27;;;8.20;;
46881;SDS011;44112;38.408;-122.974;2022-10-16T12:35:33;15.65;;;8.48;;
46881;SDS011;44112;38.408;-122.974;2022-10-16T12:38:21;11.57;;;7.55;;
46881;SDS011;44112;38.408;-122.974;2022-10-16T12:40:56;10.55;;;7.05;;
46881;SDS011;44112;38.408;-122.974;2022-10-16T12:43:44;11.55;;;7.50;;
46881;SDS011;44112;38.408;-122.974;2022-10-16T12:48:39;12.35;;;8.40;;
46881;SDS011;44112;38.408;-122.974;2022-10-16T12:54:05;12.18;;;7.82;;
46881;SDS011;44112;38.408;-122.974;2022-10-16T12:59:29;12.27;;;7.78;;
46881;SDS011;44112;38.408;-122.974;2022-10-16T13:13:06;11.65;;;7.55;;
46881;SDS011;44112;38.408;-122.974;2022-10-16T13:15:57;11.27;;;8.05;;
46881;SDS011;44112;38.408;-122.974;2022-10-16T13:18:55;12.88;;;8.27;;
46881;SDS011;44112;38.408;-122.974;2022-10-16T13:21:35;12.23;;;7.40;;
46881;SDS011;44112;38.408;-122.974;2022-10-16T13:24:25;11.43;;;7.28;;
46881;SDS011;44112;38.408;-122.974;2022-10-16T13:29:42;11.65;;;7.57;;
46881;SDS011;44112;38.408;-122.974;2022-10-16T13:32:09;12.55;;;7.88;;
46881;SDS011;44112;38.408;-122.974;2022-10-16T13:34:45;11.35;;;7.28;;
46881;SDS011;44112;38.408;-122.974;2022-10-16T13:37:18;11.30;;;7.45;;
46881;SDS011;44112;38.408;-122.974;2022-10-16T13:39:45;10.85;;;7.25;;
46881;SDS011;44112;38.408;-122.974;2022-10-16T13:42:13;10.02;;;6.93;;
46881;SDS011;44112;38.408;-122.974;2022-10-16T13:44:46;10.95;;;7.00;;
46881;SDS011;44112;38.408;-122.974;2022-10-16T13:47:19;11.52;;;7.30;;
46881;SDS011;44112;38.408;-122.974;2022-10-16T13:49:58;14.20;;;8.27;;
46881;SDS011;44112;38.408;-122.974;2022-10-16T13:52:37;10.43;;;7.03;;
46881;SDS011;44112;38.408;-122.974;2022-10-16T13:55:14;10.68;;;7.45;;
46881;SDS011;44112;38.408;-122.974;2022-10-16T13:57:42;11.63;;;7.60;;
46881;SDS011;44112;38.408;-122.974;2022-10-16T14:00:19;11.63;;;7.18;;
46881;SDS011;44112;38.408;-122.974;2022-10-16T14:02:55;12.02;;;7.18;;
46881;SDS011;44112;38.408;-122.974;2022-10-16T14:05:27;12.27;;;7.40;;
46881;SDS011;44112;38.408;-122.974;2022-10-16T14:07:54;11.55;;;7.20;;
46881;SDS011;44112;38.408;-122.974;2022-10-16T14:10:30;10.70;;;6.78;;
46881;SDS011;44112;38.408;-122.974;2022-10-16T14:13:01;10.15;;;6.93;;
46881;SDS011;44112;38.408;-122.974;2022-10-16T14:15:31;10.75;;;6.63;;
46881;SDS011;44112;38.408;-122.974;2022-10-16T14:18:00;11.77;;;6.93;;
46881;SDS011;44112;38.408;-122.974;2022-10-16T14:20:28;10.35;;;7.35;;
46881;SDS011;44112;38.408;-122.974;2022-10-16T14:23:02;10.18;;;7.03;;
46881;SDS011;44112;38.408;-122.974;2022-10-16T14:25:44;10.65;;;6.90;;
46881;SDS011;44112;38.408;-122.974;2022-10-16T14:30:50;9.32;;;6.30;;
46881;SDS011;44112;38.408;-122.974;2022-10-16T14:33:20;11.53;;;7.53;;
46881;SDS011;44112;38.408;-122.974;2022-10-16T14:36:00;10.20;;;6.35;;
46881;SDS011;44112;38.408;-122.974;2022-10-16T14:38:41;12.10;;;7.32;;
46881;SDS011;44112;38.408;-122.974;2022-10-16T14:41:13;11.30;;;7.05;;
46881;SDS011;44112;38.408;-122.974;2022-10-16T14:43:42;11.50;;;6.75;;
46881;SDS011;44112;38.408;-122.974;2022-10-16T14:46:12;10.20;;;6.80;;
46881;SDS011;44112;38.408;-122.974;2022-10-16T14:48:45;10.00;;;6.60;;
46881;SDS011;44112;38.408;-122.974;2022-10-16T14:51:15;11.20;;;6.90;;
46881;SDS011;44112;38.408;-122.974;2022-10-16T14:53:43;10.07;;;6.90;;
46881;SDS011;44112;38.408;-122.974;2022-10-16T14:56:16;10.30;;;6.10;;
46881;SDS011;44112;38.408;-122.974;2022-10-16T14:58:51;10.80;;;6.80;;
46881;SDS011;44112;38.408;-122.974;2022-10-16T15:01:19;11.30;;;7.40;;
46881;SDS011;44112;38.408;-122.974;2022-10-16T15:03:46;12.35;;;7.10;;
46881;SDS011;44112;38.408;-122.974;2022-10-16T15:06:16;11.05;;;6.63;;
46881;SDS011;44112;38.408;-122.974;2022-10-16T15:08:43;10.43;;;6.88;;
46881;SDS011;44112;38.408;-122.974;2022-10-16T15:11:14;10.23;;;6.65;;
46881;SDS011;44112;38.408;-122.974;2022-10-16T15:13:42;9.93;;;6.88;;
46881;SDS011;44112;38.408;-122.974;2022-10-16T15:16:13;9.90;;;6.53;;
46881;SDS011;44112;38.408;-122.974;2022-10-16T15:18:41;10.32;;;6.68;;
46881;SDS011;44112;38.408;-122.974;2022-10-16T15:21:09;11.38;;;6.60;;
46881;SDS011;44112;38.408;-122.974;2022-10-16T15:23:51;10.82;;;6.40;;
46881;SDS011;44112;38.408;-122.974;2022-10-16T15:26:18;9.73;;;6.32;;
46881;SDS011;44112;38.408;-122.974;2022-10-16T15:28:44;9.48;;;6.15;;
46881;SDS011;44112;38.408;-122.974;2022-10-16T15:31:11;9.90;;;6.10;;
46881;SDS011;44112;38.408;-122.974;2022-10-16T15:33:38;9.80;;;6.25;;
46881;SDS011;44112;38.408;-122.974;2022-10-16T15:36:06;10.77;;;6.55;;
46881;SDS011;44112;38.408;-122.974;2022-10-16T15:38:33;10.85;;;6.85;;
46881;SDS011;44112;38.408;-122.974;2022-10-16T15:41:00;8.93;;;5.60;;
46881;SDS011;44112;38.408;-122.974;2022-10-16T15:43:27;10.90;;;6.45;;
46881;SDS011;44112;38.408;-122.974;2022-10-16T15:45:58;10.95;;;6.45;;
46881;SDS011;44112;38.408;-122.974;2022-10-16T15:48:27;10.23;;;5.80;;
46881;SDS011;44112;38.408;-122.974;2022-10-16T15:50:54;8.77;;;5.70;;
46881;SDS011;44112;38.408;-122.974;2022-10-16T15:53:21;9.65;;;6.07;;
46881;SDS011;44112;38.408;-122.974;2022-10-16T15:55:48;9.35;;;6.13;;
46881;SDS011;44112;38.408;-122.974;2022-10-16T15:58:15;8.98;;;6.03;;
46881;SDS011;44112;38.408;-122.974;2022-10-16T16:00:42;10.18;;;6.25;;
46881;SDS011;44112;38.408;-122.974;2022-10-16T16:03:09;9.63;;;6.25;;
46881;SDS011;44112;38.408;-122.974;2022-10-16T16:05:39;9.23;;;6.00;;
46881;SDS011;44112;38.408;-122.974;2022-10-16T16:08:06;11.20;;;6.50;;
46881;SDS011;44112;38.408;-122.974;2022-10-16T16:10:33;9.10;;;6.07;;
46881;SDS011;44112;38.408;-122.974;2022-10-16T16:12:59;10.05;;;6.60;;